createdAt,value
2019-05-14T00:01:47.931Z,14.20
2019-05-14T00:04:16.719Z,14.10
2019-05-14T00:06:45.425Z,13.80
2019-05-14T00:09:27.698Z,14.00
2019-05-14T00:11:56.430Z,13.90
2019-05-14T00:14:36.589Z,13.90
2019-05-14T00:16:55.741Z,14.10
2019-05-14T00:19:24.659Z,13.90
2019-05-14T00:21:53.325Z,13.90
2019-05-14T00:24:22.032Z,13.50
2019-05-14T00:26:51.691Z,13.30
2019-05-14T00:29:22.007Z,13.30
2019-05-14T00:31:51.673Z,13.30
2019-05-14T00:34:21.495Z,13.20
2019-05-14T00:36:52.278Z,13.50
2019-05-14T00:39:21.385Z,13.50
2019-05-14T00:41:51.254Z,13.60
2019-05-14T00:44:21.553Z,13.50
2019-05-14T00:46:51.654Z,13.50
2019-05-14T00:49:21.268Z,13.70
2019-05-14T00:51:51.992Z,13.60
2019-05-14T00:54:21.569Z,13.60
2019-05-14T00:56:52.133Z,13.60
2019-05-14T00:59:21.617Z,13.50
2019-05-14T01:01:51.671Z,13.50
2019-05-14T01:04:22.234Z,13.80
2019-05-14T01:06:51.292Z,13.50
2019-05-14T01:09:21.892Z,13.60
2019-05-14T01:11:51.282Z,13.40
2019-05-14T01:14:21.127Z,13.50
2019-05-14T01:16:51.437Z,13.80
2019-05-14T01:19:21.432Z,13.70
2019-05-14T01:21:51.082Z,13.50
2019-05-14T01:24:21.574Z,13.70
2019-05-14T01:26:52.271Z,13.30
2019-05-14T01:29:21.952Z,13.50
2019-05-14T01:31:52.021Z,13.50
2019-05-14T01:34:21.607Z,13.50
2019-05-14T01:36:52.807Z,13.30
2019-05-14T01:39:21.412Z,13.30
2019-05-14T01:41:51.649Z,13.40
2019-05-14T01:44:21.384Z,13.50
2019-05-14T01:46:51.245Z,13.20
2019-05-14T01:49:22.169Z,13.10
2019-05-14T01:51:51.233Z,13.20
2019-05-14T01:54:21.158Z,13.40
2019-05-14T01:56:51.473Z,13.20
2019-05-14T01:59:21.308Z,13.30
2019-05-14T02:01:51.736Z,12.90
2019-05-14T02:04:22.081Z,13.00
2019-05-14T02:06:51.558Z,12.90
2019-05-14T02:09:21.573Z,12.90
2019-05-14T02:11:51.838Z,12.90
2019-05-14T02:14:22.004Z,13.20
2019-05-14T02:16:51.244Z,13.10
2019-05-14T02:19:22.043Z,13.10
2019-05-14T02:21:51.402Z,12.90
2019-05-14T02:24:21.778Z,12.80
2019-05-14T02:26:53.389Z,12.60
2019-05-14T02:29:22.078Z,12.80
2019-05-14T02:31:50.922Z,13.00
2019-05-14T02:34:20.116Z,12.70
2019-05-14T02:36:49.672Z,12.70
2019-05-14T02:39:19.673Z,13.00
2019-05-14T02:41:49.928Z,12.90
2019-05-14T02:44:18.993Z,12.90
2019-05-14T02:46:50.553Z,12.80
2019-05-14T02:49:19.494Z,12.70
2019-05-14T02:51:50.345Z,12.90
2019-05-14T02:54:20.351Z,12.70
2019-05-14T02:56:49.716Z,12.50
2019-05-14T02:59:19.578Z,12.60
2019-05-14T03:01:50.348Z,12.40
2019-05-14T03:04:19.918Z,12.50
2019-05-14T03:06:49.921Z,12.40
2019-05-14T03:09:20.331Z,12.40
2019-05-14T03:11:49.634Z,12.50
2019-05-14T03:14:19.594Z,12.40
2019-05-14T03:16:49.481Z,12.30
2019-05-14T03:19:19.749Z,12.10
2019-05-14T03:21:50.114Z,12.00
2019-05-14T03:24:19.751Z,12.00
2019-05-14T03:26:49.923Z,12.20
2019-05-14T03:29:19.741Z,12.00
2019-05-14T03:31:52.639Z,11.80
2019-05-14T03:34:22.402Z,11.70
2019-05-14T03:36:52.933Z,11.90
2019-05-14T03:39:20.533Z,11.70
2019-05-14T03:41:49.825Z,11.80
2019-05-14T03:44:19.988Z,11.90
2019-05-14T03:46:55.183Z,11.90
2019-05-14T03:49:20.048Z,11.90
2019-05-14T03:51:49.745Z,11.90
2019-05-14T03:54:19.753Z,12.10
2019-05-14T03:56:49.651Z,12.30
2019-05-14T03:59:20.093Z,12.00
2019-05-14T04:01:51.206Z,11.90
2019-05-14T04:04:20.313Z,11.90
2019-05-14T04:06:49.994Z,11.70
2019-05-14T04:09:21.074Z,11.70
2019-05-14T04:11:52.914Z,11.90
2019-05-14T04:14:23.593Z,11.80
2019-05-14T04:17:15.489Z,12.00
2019-05-14T04:19:43.844Z,11.70
2019-05-14T04:22:15.087Z,11.90
2019-05-14T04:24:49.390Z,11.80
2019-05-14T04:27:20.410Z,12.00
2019-05-14T04:29:51.048Z,11.60
2019-05-14T04:32:21.040Z,11.70
2019-05-14T04:34:50.753Z,11.90
2019-05-14T04:37:20.282Z,12.20
2019-05-14T04:39:50.400Z,12.20
2019-05-14T04:42:20.472Z,12.00
2019-05-14T04:44:50.634Z,11.70
2019-05-14T04:47:31.532Z,11.60
2019-05-14T04:49:50.847Z,11.80
2019-05-14T04:52:20.702Z,11.90
2019-05-14T04:54:50.147Z,12.10
2019-05-14T04:57:21.421Z,11.80
2019-05-14T04:59:49.835Z,12.10
2019-05-14T05:02:19.888Z,12.00
2019-05-14T05:04:50.570Z,11.90
2019-05-14T05:07:19.422Z,12.10
2019-05-14T05:09:50.284Z,11.90
2019-05-14T05:12:19.663Z,11.90
2019-05-14T05:14:49.432Z,12.20
2019-05-14T05:17:19.660Z,11.90
2019-05-14T05:19:51.483Z,12.20
2019-05-14T05:22:19.635Z,12.40
2019-05-14T05:24:48.659Z,12.00
2019-05-14T05:27:18.429Z,12.40
2019-05-14T05:29:48.555Z,12.40
2019-05-14T05:32:19.430Z,12.20
2019-05-14T05:34:48.652Z,12.50
2019-05-14T05:37:19.001Z,12.60
2019-05-14T05:39:49.045Z,12.50
2019-05-14T05:42:18.802Z,12.60
2019-05-14T05:44:48.341Z,12.30
2019-05-14T05:47:18.314Z,12.40
2019-05-14T05:49:48.796Z,12.50
2019-05-14T05:52:19.081Z,12.50
2019-05-14T05:54:48.978Z,12.40
2019-05-14T05:57:18.745Z,12.50
2019-05-14T05:59:48.551Z,12.40
2019-05-14T06:02:18.652Z,12.70
2019-05-14T06:04:48.211Z,12.60
2019-05-14T06:07:18.355Z,12.80
2019-05-14T06:09:48.283Z,12.70
2019-05-14T06:12:18.998Z,12.50
2019-05-14T06:14:48.825Z,12.50
2019-05-14T06:17:19.132Z,12.70
2019-05-14T06:19:48.602Z,12.60
2019-05-14T06:22:18.806Z,12.90
2019-05-14T06:24:49.593Z,12.80
2019-05-14T06:27:18.373Z,13.00
2019-05-14T06:29:48.872Z,12.90
2019-05-14T06:32:18.633Z,12.90
2019-05-14T06:34:48.914Z,12.80
2019-05-14T06:37:19.241Z,13.20
2019-05-14T06:39:48.605Z,13.20
2019-05-14T06:42:19.309Z,13.10
2019-05-14T06:44:49.298Z,13.40
2019-05-14T06:47:18.633Z,13.30
2019-05-14T06:49:48.863Z,13.40
2019-05-14T06:52:18.695Z,13.40
2019-05-14T06:54:49.638Z,13.00
2019-05-14T06:57:18.276Z,13.50
2019-05-14T06:59:48.477Z,13.20
2019-05-14T07:02:19.335Z,13.40
2019-05-14T07:04:48.507Z,13.20
2019-05-14T07:07:20.356Z,13.40
2019-05-14T07:09:48.858Z,13.20
2019-05-14T07:12:19.150Z,13.20
2019-05-14T07:14:48.441Z,13.40
2019-05-14T07:17:18.254Z,13.50
2019-05-14T07:19:49.057Z,13.30
2019-05-14T07:22:19.520Z,13.10
2019-05-14T07:24:49.657Z,13.10
2019-05-14T07:27:19.247Z,13.10
2019-05-14T07:29:49.179Z,13.10
2019-05-14T07:32:19.209Z,13.50
2019-05-14T07:34:48.380Z,13.70
2019-05-14T07:37:18.033Z,13.50
2019-05-14T07:39:48.665Z,13.40
2019-05-14T07:42:18.324Z,13.70
2019-05-14T07:44:48.483Z,13.80
2019-05-14T07:47:18.727Z,13.50
2019-05-14T07:49:48.963Z,13.50
2019-05-14T07:52:19.698Z,13.50
2019-05-14T07:54:48.323Z,13.50
2019-05-14T07:57:19.126Z,13.50
2019-05-14T07:59:48.444Z,13.70
2019-05-14T08:02:19.410Z,13.70
2019-05-14T08:04:48.710Z,13.70
2019-05-14T08:07:18.075Z,14.00
2019-05-14T08:09:48.016Z,13.90
2019-05-14T08:12:19.162Z,14.20
2019-05-14T08:15:08.462Z,14.20
2019-05-14T08:17:19.028Z,14.40
2019-05-14T08:19:49.156Z,14.60
2019-05-14T08:22:18.662Z,14.90
2019-05-14T08:24:48.936Z,14.60
2019-05-14T08:27:19.183Z,14.60
2019-05-14T08:29:48.818Z,14.60
2019-05-14T08:32:19.114Z,14.90
2019-05-14T08:34:48.233Z,14.90
2019-05-14T08:37:19.126Z,14.60
2019-05-14T08:39:48.607Z,14.30
2019-05-14T08:42:18.592Z,14.00
2019-05-14T08:45:10.578Z,14.30
2019-05-14T08:47:39.062Z,14.20
2019-05-14T08:50:09.392Z,14.60
2019-05-14T08:52:39.322Z,14.90
2019-05-14T08:55:11.111Z,15.00
2019-05-14T08:57:39.160Z,14.80
2019-05-14T09:00:13.900Z,14.70
2019-05-14T09:02:39.430Z,14.40
2019-05-14T09:05:10.298Z,14.80
2019-05-14T09:07:39.653Z,15.00
2019-05-14T09:10:08.897Z,14.70
2019-05-14T09:12:38.884Z,14.70
2019-05-14T09:15:09.720Z,15.10
2019-05-14T09:17:39.186Z,14.70
2019-05-14T09:20:11.594Z,14.80
2019-05-14T09:22:39.925Z,15.00
2019-05-14T09:25:10.456Z,15.40
2019-05-14T09:27:39.154Z,15.40
2019-05-14T09:30:09.846Z,15.60
2019-05-14T09:32:39.169Z,15.40
2019-05-14T09:35:09.732Z,15.50
2019-05-14T09:37:39.571Z,15.60
2019-05-14T09:40:09.204Z,15.50
2019-05-14T09:42:39.398Z,15.70
2019-05-14T09:45:10.886Z,15.60
2019-05-14T09:47:39.862Z,15.70
2019-05-14T09:50:22.932Z,15.80
2019-05-14T09:52:41.089Z,16.30
2019-05-14T09:55:10.053Z,16.60
2019-05-14T09:57:38.985Z,16.40
2019-05-14T10:00:09.264Z,16.70
2019-05-14T10:02:39.338Z,16.40
2019-05-14T10:05:09.279Z,16.20
2019-05-14T10:07:39.200Z,16.30
2019-05-14T10:10:08.804Z,16.70
2019-05-14T10:12:44.777Z,16.90
2019-05-14T10:15:09.831Z,16.60
2019-05-14T10:17:39.261Z,16.80
2019-05-14T10:20:09.059Z,16.70
2019-05-14T10:22:39.832Z,16.50
2019-05-14T10:25:09.386Z,16.90
2019-05-14T10:27:38.124Z,16.60
2019-05-14T10:30:10.234Z,16.60
2019-05-14T10:32:41.726Z,16.10
2019-05-14T10:35:10.993Z,16.20
2019-05-14T10:37:40.180Z,16.20
2019-05-14T10:40:10.403Z,16.40
2019-05-14T10:42:40.301Z,16.60
2019-05-14T10:45:12.978Z,16.70
2019-05-14T10:47:41.156Z,16.60
2019-05-14T10:50:13.943Z,16.50
2019-05-14T10:52:40.565Z,16.50
2019-05-14T10:55:09.650Z,16.60
2019-05-14T10:57:38.348Z,16.80
2019-05-14T11:00:08.859Z,17.00
2019-05-14T11:02:38.847Z,16.70
2019-05-14T11:05:08.168Z,16.70
2019-05-14T11:07:41.389Z,16.90
2019-05-14T11:10:09.245Z,16.60
2019-05-14T11:12:39.639Z,16.50
2019-05-14T11:15:09.113Z,16.60
2019-05-14T11:17:40.437Z,16.80
2019-05-14T11:20:08.840Z,16.80
2019-05-14T11:22:37.562Z,16.80
2019-05-14T11:25:09.165Z,17.20
2019-05-14T11:27:38.858Z,17.10
2019-05-14T11:30:09.055Z,17.30
2019-05-14T11:32:38.566Z,17.00
2019-05-14T11:35:12.693Z,16.90
2019-05-14T11:37:41.447Z,17.00
2019-05-14T11:40:10.239Z,16.90
2019-05-14T11:42:39.072Z,16.90
2019-05-14T11:45:09.159Z,16.30
2019-05-14T11:47:38.080Z,16.70
2019-05-14T11:50:09.839Z,16.50
2019-05-14T11:52:38.847Z,16.50
2019-05-14T11:55:09.115Z,16.70
2019-05-14T11:57:37.942Z,17.00
2019-05-14T12:00:08.746Z,16.70
2019-05-14T12:02:38.445Z,16.60
2019-05-14T12:05:09.025Z,16.70
2019-05-14T12:07:38.902Z,16.80
2019-05-14T12:10:09.023Z,16.90
2019-05-14T12:12:37.926Z,16.80
2019-05-14T12:15:09.095Z,17.10
2019-05-14T12:17:39.295Z,17.00
2019-05-14T12:20:08.497Z,16.90
2019-05-14T12:22:39.289Z,16.90
2019-05-14T12:25:08.227Z,17.20
2019-05-14T12:27:38.812Z,17.20
2019-05-14T12:30:09.681Z,17.70
2019-05-14T12:32:39.500Z,17.60
2019-05-14T12:35:09.313Z,17.50
2019-05-14T12:37:38.986Z,17.70
2019-05-14T12:40:08.933Z,18.00
2019-05-14T12:42:39.393Z,17.90
2019-05-14T12:45:10.488Z,17.90
2019-05-14T12:47:39.358Z,17.90
2019-05-14T12:50:10.283Z,17.60
2019-05-14T12:52:58.849Z,17.40
2019-05-14T12:55:28.584Z,17.40
2019-05-14T12:57:59.661Z,17.50
2019-05-14T13:00:27.911Z,17.50
2019-05-14T13:02:58.463Z,17.60
2019-05-14T13:05:29.349Z,17.60
2019-05-14T13:07:57.984Z,18.00
2019-05-14T13:10:29.669Z,18.10
2019-05-14T13:12:58.896Z,18.10
2019-05-14T13:15:28.665Z,18.20
2019-05-14T13:17:57.712Z,18.10
2019-05-14T13:20:28.916Z,18.00
2019-05-14T13:22:56.840Z,17.80
2019-05-14T13:25:25.503Z,17.90
2019-05-14T13:27:54.281Z,18.10
2019-05-14T13:30:23.910Z,18.20
2019-05-14T13:32:52.723Z,18.40
2019-05-14T13:35:21.403Z,18.50
2019-05-14T13:37:50.072Z,18.50
2019-05-14T13:40:21.150Z,18.10
2019-05-14T13:42:49.551Z,18.10
2019-05-14T13:45:19.196Z,18.00
2019-05-14T13:47:48.975Z,17.90
2019-05-14T13:50:20.366Z,18.20
2019-05-14T13:53:09.335Z,18.50
2019-05-14T13:55:19.812Z,18.40
2019-05-14T13:57:48.794Z,18.60
2019-05-14T14:00:19.887Z,18.40
2019-05-14T14:02:49.079Z,18.80
2019-05-14T14:05:20.257Z,18.40
2019-05-14T14:07:48.733Z,18.50
2019-05-14T14:10:17.729Z,18.50
2019-05-14T14:12:49.343Z,18.70
2019-05-14T14:15:17.602Z,18.70
2019-05-14T14:17:46.320Z,18.50
2019-05-14T14:20:15.475Z,18.40
2019-05-14T14:22:44.286Z,18.50
2019-05-14T14:25:12.954Z,18.60
2019-05-14T14:27:41.888Z,18.70
2019-05-14T14:30:12.815Z,18.40
2019-05-14T14:32:41.511Z,18.80
2019-05-14T14:35:10.644Z,18.90
2019-05-14T14:37:40.206Z,18.70
2019-05-14T14:40:11.066Z,18.30
2019-05-14T14:42:40.720Z,18.10
2019-05-14T14:45:10.247Z,17.90
2019-05-14T14:47:39.865Z,17.90
2019-05-14T14:50:10.628Z,17.90
2019-05-14T14:52:39.356Z,18.20
2019-05-14T14:55:09.053Z,18.10
2019-05-14T14:57:44.408Z,18.50
2019-05-14T15:00:11.225Z,18.50
2019-05-14T15:02:41.466Z,18.70
2019-05-14T15:05:14.241Z,18.80
2019-05-14T15:07:41.197Z,19.00
2019-05-14T15:10:10.936Z,18.80
2019-05-14T15:12:40.426Z,18.40
2019-05-14T15:15:09.462Z,18.70
2019-05-14T15:17:39.268Z,18.90
2019-05-14T15:20:10.756Z,18.70
2019-05-14T15:22:39.712Z,18.80
2019-05-14T15:25:09.289Z,18.90
2019-05-14T15:27:38.697Z,19.10
2019-05-14T15:30:08.532Z,18.80
2019-05-14T15:32:37.226Z,18.60
2019-05-14T15:35:10.575Z,18.80
2019-05-14T15:37:42.113Z,18.70
2019-05-14T15:40:09.020Z,18.80
2019-05-14T15:42:39.526Z,19.00
2019-05-14T15:45:09.535Z,18.90
2019-05-14T15:47:39.014Z,18.70
2019-05-14T15:50:09.328Z,18.40
2019-05-14T15:52:39.389Z,18.40
2019-05-14T15:55:09.752Z,18.60
2019-05-14T15:57:39.680Z,18.80
2019-05-14T16:00:12.546Z,18.90
2019-05-14T16:02:41.279Z,19.20
2019-05-14T16:05:10.697Z,19.10
2019-05-14T16:07:41.833Z,19.20
2019-05-14T16:10:10.516Z,18.90
2019-05-14T16:12:40.098Z,18.50
2019-05-14T16:15:09.921Z,18.80
2019-05-14T16:17:47.557Z,18.40
2019-05-14T16:20:10.325Z,18.30
2019-05-14T16:22:40.513Z,18.40
2019-05-14T16:25:10.009Z,18.80
2019-05-14T16:27:39.581Z,18.50
2019-05-14T16:30:10.149Z,18.60
2019-05-14T16:32:39.760Z,18.70
2019-05-14T16:35:09.390Z,18.50
2019-05-14T16:37:39.155Z,18.90
2019-05-14T16:40:08.946Z,18.90
2019-05-14T16:42:39.615Z,18.90
2019-05-14T16:45:08.965Z,19.10
2019-05-14T16:47:39.758Z,18.90
2019-05-14T16:50:11.946Z,19.10
2019-05-14T16:52:42.189Z,19.00
2019-05-14T16:55:22.668Z,18.60
2019-05-14T16:57:41.889Z,18.60
2019-05-14T17:00:11.039Z,18.60
2019-05-14T17:02:39.738Z,18.70
2019-05-14T17:05:09.389Z,18.60
2019-05-14T17:07:39.162Z,18.20
2019-05-14T17:10:08.694Z,18.50
2019-05-14T17:12:51.707Z,18.60
2019-05-14T17:15:09.569Z,18.70
2019-05-14T17:17:38.658Z,18.60
2019-05-14T17:20:08.592Z,18.70
2019-05-14T17:22:39.760Z,18.40
2019-05-14T17:25:09.354Z,18.30
2019-05-14T17:27:39.463Z,18.30
2019-05-14T17:30:09.251Z,18.40
2019-05-14T17:32:39.205Z,18.10
2019-05-14T17:35:10.706Z,18.00
2019-05-14T17:37:39.841Z,18.00
2019-05-14T17:40:09.590Z,17.90
2019-05-14T17:42:39.406Z,18.00
2019-05-14T17:45:09.642Z,18.30
2019-05-14T17:47:38.969Z,18.20
2019-05-14T17:50:09.548Z,18.20
2019-05-14T17:52:43.461Z,18.50
2019-05-14T17:55:11.999Z,18.60
2019-05-14T17:57:46.534Z,18.70
2019-05-14T18:00:11.066Z,18.90
2019-05-14T18:02:39.798Z,18.80
2019-05-14T18:05:09.628Z,18.60
2019-05-14T18:07:38.557Z,18.60
2019-05-14T18:10:08.873Z,18.20
2019-05-14T18:12:39.702Z,18.20
2019-05-14T18:15:08.799Z,18.20
2019-05-14T18:17:39.335Z,18.10
2019-05-14T18:20:09.329Z,18.30
2019-05-14T18:22:42.080Z,18.40
2019-05-14T18:25:08.658Z,18.30
2019-05-14T18:27:39.223Z,18.70
2019-05-14T18:30:09.253Z,18.30
2019-05-14T18:32:38.875Z,18.10
2019-05-14T18:35:07.861Z,18.10
2019-05-14T18:37:38.653Z,18.00
2019-05-14T18:40:09.164Z,18.20
2019-05-14T18:42:39.082Z,18.30
2019-05-14T18:45:08.827Z,18.10
2019-05-14T18:47:39.879Z,18.20
2019-05-14T18:50:09.218Z,17.80
2019-05-14T18:52:39.824Z,18.10
2019-05-14T18:55:09.036Z,18.10
2019-05-14T18:57:38.279Z,18.20
2019-05-14T19:00:09.472Z,17.90
2019-05-14T19:02:39.224Z,18.10
2019-05-14T19:05:08.799Z,17.90
2019-05-14T19:07:39.464Z,17.70
2019-05-14T19:10:09.327Z,17.80
2019-05-14T19:12:38.990Z,17.70
2019-05-14T19:15:09.038Z,17.70
2019-05-14T19:17:38.612Z,17.80
2019-05-14T19:20:08.906Z,17.60
2019-05-14T19:22:39.656Z,17.80
2019-05-14T19:25:08.342Z,17.90
2019-05-14T19:27:38.014Z,17.80
2019-05-14T19:30:08.721Z,17.70
2019-05-14T19:32:39.290Z,18.00
2019-05-14T19:35:08.737Z,18.20
2019-05-14T19:37:39.259Z,18.10
2019-05-14T19:40:09.256Z,18.10
2019-05-14T19:42:39.188Z,18.30
2019-05-14T19:45:08.655Z,18.10
2019-05-14T19:47:39.930Z,18.10
2019-05-14T19:50:09.323Z,17.80
2019-05-14T19:52:39.093Z,18.00
2019-05-14T19:55:09.669Z,17.80
2019-05-14T19:57:38.592Z,18.10
2019-05-14T20:00:09.176Z,17.90
2019-05-14T20:02:37.968Z,18.00
2019-05-14T20:05:08.998Z,17.80
2019-05-14T20:07:38.859Z,17.70
2019-05-14T20:10:09.101Z,17.90
2019-05-14T20:12:39.344Z,17.50
2019-05-14T20:15:09.414Z,17.50
2019-05-14T20:17:38.574Z,17.50
2019-05-14T20:20:09.617Z,17.70
2019-05-14T20:22:39.604Z,17.50
2019-05-14T20:25:09.767Z,17.30
2019-05-14T20:27:39.219Z,17.20
2019-05-14T20:30:10.294Z,17.40
2019-05-14T20:32:39.011Z,17.10
2019-05-14T20:35:09.526Z,17.30
2019-05-14T20:37:38.975Z,17.20
2019-05-14T20:40:09.247Z,16.90
2019-05-14T20:42:39.139Z,16.90
2019-05-14T20:45:09.207Z,16.80
2019-05-14T20:47:39.050Z,16.90
2019-05-14T20:50:09.151Z,16.80
2019-05-14T20:52:38.115Z,16.80
2019-05-14T20:55:09.984Z,16.90
2019-05-14T20:57:39.186Z,16.40
2019-05-14T21:00:11.758Z,16.80
2019-05-14T21:02:40.645Z,16.70
2019-05-14T21:05:13.367Z,16.40
2019-05-14T21:07:40.327Z,16.40
2019-05-14T21:10:09.248Z,16.40
2019-05-14T21:12:39.473Z,16.30
2019-05-14T21:15:09.779Z,16.30
2019-05-14T21:17:39.321Z,16.10
2019-05-14T21:20:09.230Z,16.30
2019-05-14T21:22:40.126Z,16.20
2019-05-14T21:25:12.584Z,16.20
2019-05-14T21:27:48.069Z,16.20
2019-05-14T21:30:11.230Z,16.00
2019-05-14T21:32:42.699Z,16.00
2019-05-14T21:35:10.753Z,15.70
2019-05-14T21:37:39.701Z,15.90
2019-05-14T21:40:09.257Z,15.80
2019-05-14T21:42:38.801Z,15.80
2019-05-14T21:45:09.875Z,15.70
2019-05-14T21:47:39.169Z,15.70
2019-05-14T21:50:09.248Z,15.50
2019-05-14T21:52:39.278Z,15.70
2019-05-14T21:55:09.483Z,15.70
2019-05-14T21:57:42.405Z,15.60
2019-05-14T22:00:11.834Z,15.60
2019-05-14T22:02:40.629Z,15.40
2019-05-14T22:05:09.816Z,15.60
2019-05-14T22:07:38.975Z,15.50
2019-05-14T22:10:09.180Z,15.40
2019-05-14T22:12:39.462Z,15.40
2019-05-14T22:15:09.039Z,15.40
2019-05-14T22:17:38.180Z,15.20
2019-05-14T22:20:08.431Z,15.50
2019-05-14T22:22:39.195Z,15.40
2019-05-14T22:25:07.916Z,15.50
2019-05-14T22:27:39.185Z,15.40
2019-05-14T22:30:09.345Z,15.50
2019-05-14T22:32:38.439Z,15.40
2019-05-14T22:35:10.315Z,15.40
2019-05-14T22:37:39.308Z,15.40
2019-05-14T22:40:08.504Z,15.50
2019-05-14T22:42:39.303Z,15.40
2019-05-14T22:45:09.459Z,15.30
2019-05-14T22:47:40.389Z,15.00
2019-05-14T22:50:09.351Z,15.00
2019-05-14T22:52:38.753Z,14.80
2019-05-14T22:55:08.034Z,15.10
2019-05-14T22:57:39.214Z,14.80
2019-05-14T23:00:09.359Z,14.90
2019-05-14T23:02:38.366Z,15.00
2019-05-14T23:05:08.447Z,14.70
2019-05-14T23:07:38.358Z,14.80
2019-05-14T23:10:08.995Z,14.70
2019-05-14T23:12:38.669Z,14.70
2019-05-14T23:15:08.646Z,14.40
2019-05-14T23:17:38.917Z,14.60
2019-05-14T23:20:09.072Z,14.40
2019-05-14T23:22:39.109Z,14.50
2019-05-14T23:25:09.069Z,14.40
2019-05-14T23:27:39.159Z,14.30
2019-05-14T23:30:09.262Z,14.40
2019-05-14T23:32:38.653Z,14.40
2019-05-14T23:35:08.607Z,14.60
2019-05-14T23:37:37.281Z,14.20
2019-05-14T23:40:08.579Z,14.40
2019-05-14T23:42:39.271Z,14.40
2019-05-14T23:45:09.248Z,14.30
2019-05-14T23:47:38.451Z,14.40
2019-05-14T23:50:08.127Z,14.30
2019-05-14T23:52:38.647Z,14.40
2019-05-14T23:55:08.523Z,14.20
2019-05-14T23:57:37.609Z,14.00
